createdAt,value
2022-10-26T00:01:21.993Z,14.10
2022-10-26T00:03:49.984Z,12.70
2022-10-26T00:06:19.799Z,11.07
2022-10-26T00:08:49.837Z,9.87
2022-10-26T00:11:20.005Z,9.00
2022-10-26T00:13:48.591Z,9.93
2022-10-26T00:16:18.807Z,8.80
2022-10-26T00:18:46.657Z,8.63
2022-10-26T00:21:15.058Z,9.33
2022-10-26T00:23:42.839Z,9.10
2022-10-26T00:26:11.199Z,8.77
2022-10-26T00:28:40.673Z,8.30
2022-10-26T00:31:13.264Z,8.70
2022-10-26T00:33:41.053Z,8.77
2022-10-26T00:36:10.390Z,8.80
2022-10-26T00:38:38.256Z,8.83
2022-10-26T00:41:06.793Z,8.30
2022-10-26T00:43:36.772Z,8.30
2022-10-26T00:46:09.344Z,8.17
2022-10-26T00:48:40.331Z,8.63
2022-10-26T00:51:11.483Z,8.67
2022-10-26T00:53:39.818Z,8.00
2022-10-26T00:56:08.173Z,8.00
2022-10-26T00:58:37.180Z,8.30
2022-10-26T01:01:06.432Z,7.90
2022-10-26T01:03:36.785Z,7.53
2022-10-26T01:06:06.500Z,7.77
2022-10-26T01:08:35.165Z,7.10
2022-10-26T01:11:04.239Z,7.07
2022-10-26T01:13:35.786Z,6.67
2022-10-26T01:16:20.478Z,6.00
2022-10-26T01:18:58.955Z,6.83
2022-10-26T01:21:49.736Z,6.00
2022-10-26T01:24:47.307Z,6.07
2022-10-26T01:27:31.551Z,7.10
2022-10-26T01:30:29.905Z,7.63
2022-10-26T01:33:24.968Z,8.27
2022-10-26T01:36:04.209Z,7.23
2022-10-26T01:38:37.770Z,8.10
2022-10-26T01:41:12.985Z,7.57
2022-10-26T01:43:47.341Z,7.20
2022-10-26T01:46:20.975Z,7.67
2022-10-26T01:48:53.017Z,7.83
2022-10-26T01:51:22.169Z,7.50
2022-10-26T01:53:50.317Z,7.80
2022-10-26T01:56:22.193Z,6.97
2022-10-26T01:59:04.429Z,6.47
2022-10-26T02:01:51.465Z,6.40
2022-10-26T02:04:35.767Z,8.07
2022-10-26T02:07:10.060Z,8.50
2022-10-26T02:09:47.201Z,9.77
2022-10-26T02:12:24.129Z,10.90
2022-10-26T02:14:58.483Z,10.10
2022-10-26T02:17:30.665Z,10.33
2022-10-26T02:20:04.201Z,11.83
2022-10-26T02:22:36.031Z,12.03
2022-10-26T02:25:13.196Z,13.00
2022-10-26T02:27:45.652Z,13.17
2022-10-26T02:30:14.476Z,15.97
2022-10-26T02:32:48.032Z,14.77
2022-10-26T02:35:18.498Z,13.20
2022-10-26T02:37:49.157Z,12.73
2022-10-26T02:40:21.725Z,11.50
2022-10-26T02:42:53.705Z,10.37
2022-10-26T02:45:27.040Z,10.17
2022-10-26T02:47:57.160Z,9.40
2022-10-26T02:50:32.760Z,8.70
2022-10-26T02:53:08.772Z,9.17
2022-10-26T02:55:41.230Z,8.90
2022-10-26T02:58:15.965Z,8.30
2022-10-26T03:00:44.427Z,7.80
2022-10-26T03:03:14.773Z,7.50
2022-10-26T03:05:43.801Z,8.20
2022-10-26T03:08:11.924Z,8.03
2022-10-26T03:10:42.538Z,7.40
2022-10-26T03:13:11.456Z,7.30
2022-10-26T03:15:39.483Z,6.43
2022-10-26T03:18:07.997Z,6.63
2022-10-26T03:20:37.320Z,6.70
2022-10-26T03:23:05.114Z,6.10
2022-10-26T03:25:32.879Z,6.40
2022-10-26T03:28:02.381Z,6.70
2022-10-26T03:30:31.535Z,6.30
2022-10-26T03:32:59.415Z,6.80
2022-10-26T03:35:27.229Z,6.57
2022-10-26T03:37:56.479Z,5.80
2022-10-26T03:40:24.325Z,6.43
2022-10-26T03:42:52.469Z,6.00
2022-10-26T03:45:20.530Z,6.47
2022-10-26T03:47:49.779Z,6.17
2022-10-26T03:50:19.695Z,5.83
2022-10-26T03:52:48.811Z,6.87
2022-10-26T03:55:19.341Z,5.67
2022-10-26T03:57:47.156Z,6.83
2022-10-26T04:00:17.249Z,6.53
2022-10-26T04:02:46.925Z,5.63
2022-10-26T04:05:16.575Z,5.80
2022-10-26T04:07:44.620Z,5.40
2022-10-26T04:10:12.543Z,6.33
2022-10-26T04:12:41.735Z,5.93
2022-10-26T04:15:10.245Z,5.50
2022-10-26T04:17:38.048Z,5.57
2022-10-26T04:20:06.698Z,5.60
2022-10-26T04:22:35.128Z,5.70
2022-10-26T04:25:02.977Z,6.30
2022-10-26T04:27:30.781Z,6.27
2022-10-26T04:30:00.160Z,5.70
2022-10-26T04:32:28.066Z,6.20
2022-10-26T04:34:55.843Z,5.67
2022-10-26T04:37:23.639Z,6.13
2022-10-26T04:39:51.398Z,9.60
2022-10-26T04:42:19.161Z,6.10
2022-10-26T04:44:46.912Z,10.93
2022-10-26T04:47:16.025Z,6.43
2022-10-26T04:49:43.790Z,5.67
2022-10-26T04:52:11.557Z,5.40
2022-10-26T04:54:39.401Z,5.23
2022-10-26T04:57:07.310Z,4.77
2022-10-26T04:59:35.114Z,4.63
2022-10-26T05:02:03.079Z,4.57
2022-10-26T05:04:32.379Z,5.20
2022-10-26T05:07:00.153Z,4.87
2022-10-26T05:09:27.940Z,4.73
2022-10-26T05:11:55.691Z,5.80
2022-10-26T05:14:23.588Z,5.50
2022-10-26T05:16:51.819Z,5.93
2022-10-26T05:19:19.631Z,5.77
2022-10-26T05:21:48.752Z,5.70
2022-10-26T05:24:16.548Z,5.60
2022-10-26T05:26:44.520Z,5.10
2022-10-26T05:29:12.461Z,5.60
2022-10-26T05:31:40.292Z,5.37
2022-10-26T05:34:08.079Z,5.50
2022-10-26T05:36:35.819Z,4.80
2022-10-26T05:39:05.205Z,4.80
2022-10-26T05:41:32.952Z,4.90
2022-10-26T05:44:00.957Z,5.17
2022-10-26T05:46:28.738Z,5.30
2022-10-26T05:48:56.508Z,6.30
2022-10-26T05:51:24.260Z,5.80
2022-10-26T05:53:54.685Z,6.30
2022-10-26T05:56:36.614Z,5.83
2022-10-26T05:59:05.068Z,5.77
2022-10-26T06:01:48.842Z,5.60
2022-10-26T06:04:28.214Z,5.40
2022-10-26T06:06:58.520Z,5.33
2022-10-26T06:09:27.157Z,5.63
2022-10-26T06:11:57.097Z,5.70
2022-10-26T06:14:25.399Z,5.53
2022-10-26T06:17:07.822Z,4.80
2022-10-26T06:19:48.345Z,5.60
2022-10-26T06:22:29.401Z,5.93
2022-10-26T06:25:05.289Z,7.13
2022-10-26T06:27:44.826Z,7.73
2022-10-26T06:30:13.166Z,5.73
2022-10-26T06:32:42.501Z,5.90
2022-10-26T06:35:25.196Z,10.23
2022-10-26T06:37:55.360Z,8.90
2022-10-26T06:40:24.869Z,6.97
2022-10-26T06:42:54.661Z,6.80
2022-10-26T06:45:23.289Z,7.13
2022-10-26T06:47:58.375Z,6.80
2022-10-26T06:50:37.645Z,6.83
2022-10-26T06:53:22.209Z,6.23
2022-10-26T06:55:51.772Z,6.23
2022-10-26T06:58:24.204Z,6.90
2022-10-26T07:00:54.883Z,6.80
2022-10-26T07:03:22.720Z,6.40
2022-10-26T07:05:50.806Z,6.63
2022-10-26T07:08:18.841Z,6.30
2022-10-26T07:10:48.014Z,6.20
2022-10-26T07:13:15.941Z,6.77
2022-10-26T07:15:45.117Z,6.80
2022-10-26T07:18:12.907Z,7.53
2022-10-26T07:20:42.909Z,7.53
2022-10-26T07:23:11.905Z,6.23
2022-10-26T07:25:40.648Z,6.77
2022-10-26T07:28:10.153Z,7.60
2022-10-26T07:30:39.249Z,6.90
2022-10-26T07:33:10.572Z,6.80
2022-10-26T07:35:38.673Z,7.20
2022-10-26T07:38:07.168Z,10.83
2022-10-26T07:40:35.700Z,8.80
2022-10-26T07:43:03.468Z,8.40
2022-10-26T07:45:31.636Z,7.73
2022-10-26T07:47:59.416Z,7.70
2022-10-26T07:50:28.559Z,6.97
2022-10-26T07:52:56.332Z,6.23
2022-10-26T07:55:24.213Z,8.40
2022-10-26T07:57:54.712Z,7.00
2022-10-26T08:00:23.383Z,7.00
2022-10-26T08:02:51.180Z,6.97
2022-10-26T08:05:19.347Z,7.53
2022-10-26T08:07:49.074Z,6.77
2022-10-26T08:10:17.546Z,6.80
2022-10-26T08:12:45.448Z,6.20
2022-10-26T08:15:13.268Z,6.20
2022-10-26T08:17:41.033Z,6.83
2022-10-26T08:20:09.977Z,6.77
2022-10-26T08:22:37.737Z,7.03
2022-10-26T08:25:07.464Z,6.50
2022-10-26T08:27:35.258Z,5.60
2022-10-26T08:30:03.041Z,6.30
2022-10-26T08:32:30.876Z,6.10
2022-10-26T08:34:58.632Z,6.30
2022-10-26T08:37:28.241Z,6.20
2022-10-26T08:39:57.489Z,5.63
2022-10-26T08:42:34.896Z,5.37
2022-10-26T08:45:08.605Z,6.10
2022-10-26T08:47:43.090Z,5.30
2022-10-26T08:50:15.415Z,6.70
2022-10-26T08:52:50.949Z,6.37
2022-10-26T08:55:23.468Z,6.90
2022-10-26T08:57:54.521Z,7.17
2022-10-26T09:00:24.565Z,5.20
2022-10-26T09:02:53.469Z,7.40
2022-10-26T09:05:28.740Z,7.60
2022-10-26T09:08:06.133Z,6.70
2022-10-26T09:10:40.932Z,7.37
2022-10-26T09:13:24.745Z,7.53
2022-10-26T09:16:03.457Z,7.17
2022-10-26T09:18:42.502Z,6.47
2022-10-26T09:21:17.209Z,6.60
2022-10-26T09:23:57.039Z,6.90
2022-10-26T09:26:33.492Z,6.60
2022-10-26T09:29:06.608Z,7.60
2022-10-26T09:31:43.971Z,7.93
2022-10-26T09:34:21.475Z,7.80
2022-10-26T09:36:54.189Z,8.20
2022-10-26T09:39:29.686Z,7.53
2022-10-26T09:42:01.273Z,7.77
2022-10-26T09:44:35.678Z,6.10
2022-10-26T09:47:07.655Z,7.23
2022-10-26T09:49:42.712Z,6.87
2022-10-26T09:54:39.465Z,8.03
2022-10-26T09:57:08.829Z,8.30
2022-10-26T09:59:41.139Z,8.37
2022-10-26T10:02:35.540Z,7.60
2022-10-26T10:05:32.574Z,7.63
2022-10-26T10:08:19.075Z,7.10
2022-10-26T10:10:56.154Z,7.17
2022-10-26T10:13:26.765Z,7.90
2022-10-26T10:15:58.688Z,7.80
2022-10-26T10:18:26.716Z,7.63
2022-10-26T10:20:57.565Z,7.67
2022-10-26T10:23:28.996Z,7.23
2022-10-26T10:26:06.043Z,7.83
2022-10-26T10:28:35.134Z,7.00
2022-10-26T10:31:06.368Z,7.53
2022-10-26T10:33:39.611Z,8.90
2022-10-26T10:36:11.463Z,8.73
2022-10-26T10:38:41.777Z,8.37
2022-10-26T10:41:18.172Z,8.47
2022-10-26T10:43:49.861Z,7.50
2022-10-26T10:46:25.695Z,9.60
2022-10-26T10:49:01.775Z,7.53
2022-10-26T10:51:31.613Z,7.17
2022-10-26T10:53:59.440Z,6.63
2022-10-26T10:56:35.400Z,7.10
2022-10-26T10:59:22.386Z,6.30
2022-10-26T11:01:59.046Z,6.90
2022-10-26T11:04:45.828Z,6.60
2022-10-26T11:07:16.273Z,6.50
2022-10-26T11:09:47.836Z,6.80
2022-10-26T11:12:19.960Z,7.00
2022-10-26T11:14:53.711Z,7.50
2022-10-26T11:17:26.882Z,7.97
2022-10-26T11:19:58.653Z,6.40
2022-10-26T11:22:30.104Z,6.90
2022-10-26T11:25:01.569Z,6.70
2022-10-26T11:27:35.184Z,6.40
2022-10-26T11:30:06.952Z,7.80
2022-10-26T11:32:44.321Z,7.83
2022-10-26T11:35:17.901Z,8.00
2022-10-26T11:37:50.884Z,8.27
2022-10-26T11:40:29.318Z,8.30
2022-10-26T11:43:06.422Z,9.20
2022-10-26T11:45:37.101Z,7.63
2022-10-26T11:48:15.862Z,8.10
2022-10-26T11:50:47.580Z,8.67
2022-10-26T11:53:18.726Z,9.23
2022-10-26T11:55:52.246Z,11.00
2022-10-26T11:58:23.945Z,10.20
2022-10-26T12:00:57.690Z,8.47
2022-10-26T12:03:29.470Z,9.30
2022-10-26T12:05:57.315Z,9.00
2022-10-26T12:08:28.332Z,9.17
2022-10-26T12:11:03.435Z,10.23
2022-10-26T12:13:37.915Z,10.50
2022-10-26T12:16:12.660Z,13.70
2022-10-26T12:18:55.584Z,8.97
2022-10-26T12:21:27.191Z,9.43
2022-10-26T12:23:56.589Z,8.80
2022-10-26T12:26:57.353Z,8.50
2022-10-26T12:29:47.253Z,8.33
2022-10-26T12:32:51.638Z,8.43
2022-10-26T12:35:54.813Z,9.90
2022-10-26T12:39:00.092Z,9.20
2022-10-26T12:41:29.086Z,8.40
2022-10-26T12:43:59.178Z,7.87
2022-10-26T12:46:42.495Z,10.77
2022-10-26T12:49:58.195Z,8.53
2022-10-26T12:52:40.788Z,8.57
2022-10-26T12:55:49.936Z,8.40
2022-10-26T12:58:54.166Z,7.80
2022-10-26T13:04:51.243Z,9.50
2022-10-26T13:07:21.892Z,9.20
2022-10-26T13:09:58.887Z,8.87
2022-10-26T13:12:28.351Z,10.40
2022-10-26T13:15:01.472Z,9.13
2022-10-26T13:17:32.422Z,8.30
2022-10-26T13:20:02.128Z,9.67
2022-10-26T13:22:31.004Z,14.73
2022-10-26T13:25:03.120Z,9.03
2022-10-26T13:27:44.895Z,7.03
2022-10-26T13:30:43.881Z,8.90
2022-10-26T13:33:37.782Z,7.63
2022-10-26T13:36:16.673Z,7.93
2022-10-26T13:38:47.229Z,8.47
2022-10-26T13:41:23.863Z,7.70
2022-10-26T13:43:53.182Z,8.73
2022-10-26T13:46:28.424Z,7.53
2022-10-26T13:49:04.810Z,7.70
2022-10-26T13:51:41.886Z,7.70
2022-10-26T13:54:21.666Z,7.60
2022-10-26T13:57:03.219Z,8.27
2022-10-26T13:59:34.301Z,8.67
2022-10-26T14:02:15.743Z,8.03
2022-10-26T14:04:47.162Z,8.27
2022-10-26T14:07:22.751Z,9.10
2022-10-26T14:09:52.655Z,8.80
2022-10-26T14:12:22.436Z,9.33
2022-10-26T14:14:51.434Z,11.27
2022-10-26T14:17:25.534Z,10.80
2022-10-26T14:19:54.200Z,12.10
2022-10-26T14:22:25.270Z,15.13
2022-10-26T14:27:27.560Z,11.07
2022-10-26T14:32:44.285Z,12.20
2022-10-26T14:35:13.613Z,10.83
2022-10-26T14:37:46.552Z,10.40
2022-10-26T14:40:18.218Z,10.97
2022-10-26T14:42:51.289Z,9.90
2022-10-26T14:45:43.334Z,8.70
2022-10-26T14:48:21.892Z,8.07
2022-10-26T14:51:00.397Z,11.03
2022-10-26T14:53:35.423Z,12.80
2022-10-26T14:56:05.095Z,10.20
2022-10-26T14:58:35.252Z,10.40
2022-10-26T15:01:16.185Z,13.93
2022-10-26T15:03:45.409Z,15.53
2022-10-26T15:06:34.224Z,17.33
2022-10-26T15:09:04.614Z,13.70
2022-10-26T15:11:34.488Z,13.07
2022-10-26T15:14:04.176Z,14.37
2022-10-26T15:16:35.987Z,15.47
2022-10-26T15:19:10.302Z,18.37
2022-10-26T15:21:41.112Z,15.50
2022-10-26T15:24:27.490Z,15.10
2022-10-26T15:26:55.710Z,16.40
2022-10-26T15:29:39.302Z,21.13
2022-10-26T15:32:20.489Z,22.30
2022-10-26T15:34:50.739Z,22.37
2022-10-26T15:37:19.816Z,18.90
2022-10-26T15:39:47.940Z,18.83
2022-10-26T15:42:15.850Z,16.47
2022-10-26T15:44:44.968Z,15.73
2022-10-26T15:47:19.399Z,15.40
2022-10-26T15:49:47.252Z,14.80
2022-10-26T15:52:15.145Z,14.90
2022-10-26T15:54:42.967Z,14.50
2022-10-26T15:57:16.708Z,14.30
2022-10-26T15:59:48.380Z,14.17
2022-10-26T16:02:17.405Z,15.83
2022-10-26T16:04:45.353Z,15.57
2022-10-26T16:07:14.363Z,15.03
2022-10-26T16:09:43.077Z,13.30
2022-10-26T16:12:11.892Z,14.50
2022-10-26T16:15:00.593Z,16.57
2022-10-26T16:17:29.112Z,16.53
2022-10-26T16:19:56.876Z,23.70
2022-10-26T16:22:25.037Z,20.07
2022-10-26T16:24:52.813Z,17.63
2022-10-26T16:27:20.598Z,16.30
2022-10-26T16:29:48.494Z,32.50
2022-10-26T16:32:16.298Z,22.33
2022-10-26T16:34:45.510Z,21.20
2022-10-26T16:37:13.251Z,17.40
2022-10-26T16:39:41.010Z,18.00
2022-10-26T16:42:08.780Z,17.13
2022-10-26T16:44:37.908Z,17.23
2022-10-26T16:47:05.839Z,16.53
2022-10-26T16:49:34.166Z,17.63
2022-10-26T16:52:04.292Z,17.10
2022-10-26T16:54:32.069Z,17.97
2022-10-26T16:56:59.841Z,20.60
2022-10-26T16:59:27.701Z,25.00
2022-10-26T17:01:55.606Z,21.90
2022-10-26T17:04:23.566Z,24.67
2022-10-26T17:06:51.730Z,26.37
2022-10-26T17:09:20.945Z,29.30
2022-10-26T17:11:48.888Z,26.47
2022-10-26T17:14:17.224Z,29.23
2022-10-26T17:16:44.967Z,29.60
2022-10-26T17:19:12.975Z,26.87
2022-10-26T17:21:40.729Z,27.53
2022-10-26T17:24:08.713Z,22.23
2022-10-26T17:26:37.876Z,20.87
2022-10-26T17:29:05.759Z,20.70
2022-10-26T17:31:34.235Z,18.90
2022-10-26T17:34:02.324Z,19.70
2022-10-26T17:36:31.639Z,22.50
2022-10-26T17:39:00.765Z,19.27
2022-10-26T17:41:28.732Z,18.50
2022-10-26T17:43:58.045Z,18.70
2022-10-26T17:46:27.922Z,19.30
2022-10-26T17:48:56.395Z,18.90
2022-10-26T17:51:24.785Z,19.73
2022-10-26T17:53:52.756Z,20.20
2022-10-26T17:56:22.195Z,38.40
2022-10-26T17:58:53.688Z,33.07
2022-10-26T18:01:23.495Z,36.97
2022-10-26T18:03:51.458Z,29.50
2022-10-26T18:06:19.357Z,37.10
2022-10-26T18:08:47.285Z,36.80
2022-10-26T18:11:18.575Z,27.67
2022-10-26T18:13:48.537Z,24.23
2022-10-26T18:16:19.053Z,47.93
2022-10-26T18:18:50.072Z,47.57
2022-10-26T18:21:19.529Z,30.80
2022-10-26T18:23:47.956Z,25.30
2022-10-26T18:26:18.612Z,23.83
2022-10-26T18:28:47.070Z,23.27
2022-10-26T18:31:16.805Z,21.50
2022-10-26T18:33:44.936Z,22.50
2022-10-26T18:36:15.627Z,20.77
2022-10-26T18:38:44.438Z,22.10
2022-10-26T18:41:14.161Z,23.93
2022-10-26T18:43:42.699Z,22.53
2022-10-26T18:46:14.155Z,20.20
2022-10-26T18:48:44.365Z,21.13
2022-10-26T18:51:15.204Z,23.50
2022-10-26T18:53:44.636Z,24.67
2022-10-26T18:56:14.101Z,24.37
2022-10-26T18:58:43.760Z,24.20
2022-10-26T19:01:13.421Z,27.13
2022-10-26T19:03:42.359Z,28.83
2022-10-26T19:06:12.339Z,27.87
2022-10-26T19:08:42.510Z,28.87
2022-10-26T19:11:12.566Z,30.10
2022-10-26T19:13:40.515Z,27.53
2022-10-26T19:16:21.718Z,27.90
2022-10-26T19:18:58.993Z,27.97
2022-10-26T19:21:28.169Z,26.63
2022-10-26T19:23:59.404Z,26.67
2022-10-26T19:26:33.381Z,24.23
2022-10-26T19:29:05.881Z,27.70
2022-10-26T19:31:35.620Z,26.67
2022-10-26T19:34:04.400Z,26.20
2022-10-26T19:36:32.208Z,28.07
2022-10-26T19:39:02.014Z,29.27
2022-10-26T19:41:31.298Z,29.17
2022-10-26T19:46:32.781Z,28.00
2022-10-26T19:49:02.482Z,34.07
2022-10-26T19:51:32.131Z,28.93
2022-10-26T19:54:03.762Z,24.40
2022-10-26T19:56:32.431Z,26.47
2022-10-26T19:59:00.977Z,24.87
2022-10-26T20:01:29.145Z,26.10
2022-10-26T20:03:57.208Z,31.53
2022-10-26T20:06:25.054Z,44.30
2022-10-26T20:08:52.836Z,35.73
2022-10-26T20:11:21.976Z,27.30
2022-10-26T20:13:49.788Z,24.67
2022-10-26T20:16:18.615Z,24.40
2022-10-26T20:18:48.976Z,24.63
2022-10-26T20:21:18.324Z,23.73
2022-10-26T20:23:46.412Z,23.57
2022-10-26T20:26:18.449Z,24.30
2022-10-26T20:28:51.285Z,22.00
2022-10-26T20:31:19.700Z,22.70
2022-10-26T20:33:51.436Z,24.07
2022-10-26T20:36:19.269Z,21.50
2022-10-26T20:38:47.594Z,22.60
2022-10-26T20:41:15.912Z,22.57
2022-10-26T20:43:44.341Z,22.20
2022-10-26T20:46:21.800Z,24.43
2022-10-26T20:48:50.365Z,25.70
2022-10-26T20:51:23.808Z,26.03
2022-10-26T20:54:04.470Z,24.30
2022-10-26T20:56:34.840Z,23.07
2022-10-26T20:59:04.983Z,22.17
2022-10-26T21:01:38.135Z,22.63
2022-10-26T21:04:06.235Z,22.93
2022-10-26T21:06:40.058Z,24.80
2022-10-26T21:09:08.994Z,21.60
2022-10-26T21:11:36.804Z,22.17
2022-10-26T21:14:06.363Z,19.80
2022-10-26T21:16:35.678Z,19.30
2022-10-26T21:19:04.921Z,21.00
2022-10-26T21:21:33.145Z,19.83
2022-10-26T21:24:02.371Z,19.47
2022-10-26T21:26:30.481Z,20.93
2022-10-26T21:28:58.288Z,21.23
2022-10-26T21:31:26.132Z,23.13
2022-10-26T21:33:55.321Z,21.37
2022-10-26T21:36:23.140Z,21.83
2022-10-26T21:38:50.887Z,23.20
2022-10-26T21:41:20.649Z,24.27
2022-10-26T21:43:55.959Z,22.13
2022-10-26T21:46:31.449Z,20.43
2022-10-26T21:49:00.524Z,21.80
2022-10-26T21:51:28.320Z,23.07
2022-10-26T21:53:56.079Z,21.73
2022-10-26T21:56:23.939Z,38.93
2022-10-26T21:58:51.687Z,62.47
2022-10-26T22:01:21.226Z,34.00
2022-10-26T22:03:49.717Z,25.73
2022-10-26T22:06:23.485Z,24.90
2022-10-26T22:08:51.305Z,28.37
2022-10-26T22:11:21.105Z,40.40
2022-10-26T22:13:50.385Z,45.60
2022-10-26T22:16:20.880Z,26.63
2022-10-26T22:18:50.103Z,21.83
2022-10-26T22:21:19.476Z,21.60
2022-10-26T22:23:48.888Z,21.90
2022-10-26T22:26:19.503Z,22.17
2022-10-26T22:28:48.612Z,22.90
2022-10-26T22:31:18.955Z,19.90
2022-10-26T22:33:46.846Z,18.90
2022-10-26T22:36:16.898Z,19.67
2022-10-26T22:38:45.443Z,18.93
2022-10-26T22:41:14.532Z,20.20
2022-10-26T22:43:42.325Z,20.33
2022-10-26T22:46:13.992Z,19.67
2022-10-26T22:48:42.213Z,22.90
2022-10-26T22:51:12.392Z,24.20
2022-10-26T22:53:40.271Z,25.47
2022-10-26T22:56:10.239Z,20.53
2022-10-26T22:58:40.620Z,20.23
2022-10-26T23:01:10.346Z,20.07
2022-10-26T23:03:38.463Z,22.80
2022-10-26T23:06:08.542Z,20.77
2022-10-26T23:08:36.418Z,21.33
2022-10-26T23:11:06.824Z,28.70
2022-10-26T23:13:35.015Z,39.77
2022-10-26T23:16:07.743Z,35.90
2022-10-26T23:18:36.055Z,29.73
2022-10-26T23:21:05.016Z,25.20
2022-10-26T23:23:33.084Z,24.63
2022-10-26T23:26:01.859Z,24.07
2022-10-26T23:28:30.114Z,22.90
2022-10-26T23:30:58.241Z,22.10
2022-10-26T23:33:27.601Z,21.63
2022-10-26T23:35:55.393Z,20.63
2022-10-26T23:38:23.153Z,20.10
2022-10-26T23:40:52.181Z,19.93
2022-10-26T23:43:20.205Z,19.00
2022-10-26T23:45:48.200Z,20.83
2022-10-26T23:48:17.019Z,20.63
2022-10-26T23:50:47.497Z,21.80
2022-10-26T23:53:16.282Z,22.13
2022-10-26T23:55:44.429Z,21.20
2022-10-26T23:58:12.983Z,19.57
